Time;durP1;ratioP1;P1;durP2;ratioP2;P2;SDS_P1;SDS_P2;PMS_P1;PMS_P2;Temp;Humidity;BMP_temperature;BMP_pressure;BME280_temperature;BME280_humidity;BME280_pressure;Samples;Min_cycle;Max_cycle;Signal;HPM_P1;HPM_P2
2021/12/28 00:01:58;;;;;;;21.58;9.75;;;;;;;5.85;97.77;99404.91;5047617;28;20028;-85
2021/12/28 00:04:24;;;;;;;20.08;9.77;;;;;;;5.81;98.24;99408.44;5048242;28;20136;-86
2021/12/28 00:06:49;;;;;;;26.75;10.10;;;;;;;5.80;98.19;99401.63;5046970;28;20056;-84
2021/12/28 00:09:14;;;;;;;19.55;9.57;;;;;;;5.76;98.07;99389.69;5052196;28;20020;-85
2021/12/28 00:11:39;;;;;;;23.88;9.93;;;;;;;5.74;97.76;99394.06;5053129;28;20033;-85
2021/12/28 00:14:06;;;;;;;23.52;9.85;;;;;;;5.72;97.67;99388.09;5051957;28;20146;-85
2021/12/28 00:17:58;;;;;;;25.13;10.20;;;;;;;5.68;97.76;99391.66;5053105;28;20567;-85
2021/12/28 00:19:17;;;;;;;23.40;9.40;;;;;;;5.66;97.71;99396.00;5052335;28;20021;-85
2021/12/28 00:21:42;;;;;;;23.58;9.38;;;;;;;5.61;97.57;99396.13;5052952;28;20040;-85
2021/12/28 00:24:10;;;;;;;27.20;9.75;;;;;;;5.61;97.60;99399.56;5050785;28;20395;-85
2021/12/28 00:26:36;;;;;;;23.20;9.30;;;;;;;5.60;98.04;99395.31;5054534;28;20472;-85
2021/12/28 00:29:01;;;;;;;19.45;8.80;;;;;;;5.59;97.43;99398.78;5052859;28;20032;-85
2021/12/28 00:31:26;;;;;;;22.60;9.35;;;;;;;5.56;97.29;99388.53;5052431;28;20024;-85
2021/12/28 00:33:53;;;;;;;23.17;9.05;;;;;;;5.56;97.42;99388.53;5053231;28;20024;-85
2021/12/28 00:36:19;;;;;;;22.27;8.95;;;;;;;5.52;97.33;99389.50;5047856;28;20425;-85
2021/12/28 00:38:44;;;;;;;22.48;8.77;;;;;;;5.48;97.05;99385.31;5053153;28;20033;-85
2021/12/28 00:41:11;;;;;;;22.02;8.73;;;;;;;5.48;97.48;99385.31;5053544;28;20081;-85
2021/12/28 00:43:36;;;;;;;18.93;8.77;;;;;;;5.44;97.00;99383.72;5053246;28;20044;-85
2021/12/28 00:46:03;;;;;;;17.60;8.45;;;;;;;5.41;96.96;99373.50;5053051;28;20101;-85
2021/12/28 00:48:29;;;;;;;22.20;9.75;;;;;;;5.41;96.72;99379.50;5052827;28;20492;-85
2021/12/28 00:50:55;;;;;;;25.98;9.30;;;;;;;5.38;97.14;99378.75;5052372;28;20031;-86
2021/12/28 00:53:20;;;;;;;23.02;8.98;;;;;;;5.37;97.01;99372.75;5051855;28;20065;-85
2021/12/28 00:55:45;;;;;;;19.52;8.70;;;;;;;5.36;96.82;99370.19;5052020;28;20122;-85
2021/12/28 00:58:11;;;;;;;22.35;8.82;;;;;;;5.34;96.91;99366.81;5052732;28;20044;-85
2021/12/28 01:00:38;;;;;;;25.77;9.05;;;;;;;5.33;96.83;99365.97;5051913;28;20029;-85
2021/12/28 01:03:06;;;;;;;20.90;9.15;;;;;;;5.31;96.94;99363.44;5054087;28;20112;-85
2021/12/28 01:05:32;;;;;;;26.85;9.20;;;;;;;5.28;96.71;99357.50;5051946;28;20025;-85
2021/12/28 01:07:57;;;;;;;25.50;8.52;;;;;;;5.24;96.77;99359.34;5034390;28;20070;-85
2021/12/28 01:10:27;;;;;;;23.25;8.88;;;;;;;5.28;97.09;99362.69;5052873;28;20021;-85
2021/12/28 01:12:55;;;;;;;23.77;8.40;;;;;;;5.28;96.83;99355.81;5051968;28;20105;-85
2021/12/28 01:15:22;;;;;;;22.92;8.07;;;;;;;5.28;97.07;99357.50;5035334;28;20048;-85
2021/12/28 01:17:48;;;;;;;29.30;9.38;;;;;;;5.27;96.59;99350.66;5051819;28;20032;-85
2021/12/28 01:20:14;;;;;;;22.77;8.27;;;;;;;5.30;97.08;99348.84;5052517;28;20024;-85
2021/12/28 01:22:41;;;;;;;21.13;8.40;;;;;;;5.32;96.94;99348.81;5051340;28;20126;-85
2021/12/28 01:25:07;;;;;;;24.95;8.30;;;;;;;5.36;97.28;99353.00;5051451;28;20104;-85
2021/12/28 01:27:33;;;;;;;22.20;8.40;;;;;;;5.35;97.29;99355.59;5051323;28;20021;-85
2021/12/28 01:29:58;;;;;;;24.17;8.63;;;;;;;5.36;96.92;99354.72;5053507;28;20494;-85
2021/12/28 01:32:24;;;;;;;28.83;8.30;;;;;;;5.32;96.89;99349.66;5052275;28;20047;-85
2021/12/28 01:34:49;;;;;;;26.08;8.48;;;;;;;5.34;96.77;99352.19;5035049;28;20037;-85
2021/12/28 01:37:14;;;;;;;26.90;8.45;;;;;;;5.31;96.79;99352.28;5050628;28;20078;-85
2021/12/28 01:39:40;;;;;;;23.98;8.80;;;;;;;5.31;97.14;99350.53;5049929;28;20052;-85
2021/12/28 01:42:07;;;;;;;24.80;7.85;;;;;;;5.28;96.56;99352.34;5051637;28;20039;-85
2021/12/28 01:44:34;;;;;;;25.60;7.65;;;;;;;5.24;96.49;99355.91;5050286;28;20021;-85
2021/12/28 01:46:59;;;;;;;24.40;8.20;;;;;;;5.24;96.60;99341.28;5052139;28;20086;-85
2021/12/28 01:49:24;;;;;;;28.20;7.68;;;;;;;5.21;96.79;99348.28;5052212;28;20410;-85
2021/12/28 01:51:50;;;;;;;25.27;7.28;;;;;;;5.20;96.78;99344.84;5051347;28;20086;-85
2021/12/28 01:54:16;;;;;;;30.45;8.48;;;;;;;5.17;96.53;99342.34;5052954;28;20056;-85
2021/12/28 01:56:44;;;;;;;26.38;7.63;;;;;;;5.14;96.84;99347.56;5051336;28;20487;-85
2021/12/28 01:59:11;;;;;;;31.33;8.00;;;;;;;5.17;96.85;99350.06;5050763;28;20495;-85
2021/12/28 02:01:38;;;;;;;24.00;7.40;;;;;;;5.15;96.63;99346.69;5050460;28;20032;-85
2021/12/28 02:04:15;;;;;;;25.45;6.93;;;;;;;5.14;96.65;99350.16;5050180;28;20016;-85
2021/12/28 02:06:41;;;;;;;33.72;7.82;;;;;;;5.14;96.80;99339.84;5053680;28;20020;-85
2021/12/28 02:09:06;;;;;;;27.95;8.15;;;;;;;5.19;97.21;99343.16;5050907;28;20021;-85
2021/12/28 02:11:31;;;;;;;32.47;7.57;;;;;;;5.16;97.17;99338.94;5051000;28;20099;-85
2021/12/28 02:13:56;;;;;;;30.48;7.53;;;;;;;5.16;97.63;99340.66;5051783;28;20172;-85
2021/12/28 02:16:22;;;;;;;25.55;6.88;;;;;;;5.17;97.74;99342.34;5050997;28;20056;-85
2021/12/28 02:18:47;;;;;;;34.75;7.63;;;;;;;5.19;97.63;99340.56;5052448;28;20048;-85
2021/12/28 02:21:13;;;;;;;40.60;7.82;;;;;;;5.21;97.51;99333.63;5049957;28;20036;-85
2021/12/28 02:23:39;;;;;;;43.33;8.18;;;;;;;5.27;97.86;99336.06;5049613;28;20431;-85
2021/12/28 02:26:05;;;;;;;34.15;7.90;;;;;;;5.31;97.85;99335.06;5050722;28;20082;-85
2021/12/28 02:28:30;;;;;;;36.97;7.85;;;;;;;5.34;98.33;99335.88;5051705;28;20025;-85
2021/12/28 02:30:57;;;;;;;35.30;8.32;;;;;;;5.36;98.11;99334.09;5051872;28;20327;-85
2021/12/28 02:33:23;;;;;;;38.00;7.85;;;;;;;5.41;98.70;99327.06;5049930;28;20020;-85
2021/12/28 02:35:49;;;;;;;37.65;7.65;;;;;;;5.46;98.49;99320.06;5051606;28;20125;-85
2021/12/28 02:38:14;;;;;;;41.47;8.00;;;;;;;5.49;98.89;99314.78;5051466;28;20384;-85
2021/12/28 02:40:43;;;;;;;35.38;7.45;;;;;;;5.52;98.66;99312.13;5051985;28;20387;-85
2021/12/28 02:43:13;;;;;;;39.00;7.93;;;;;;;5.54;98.84;99314.69;5051472;28;20032;-85
2021/12/28 02:45:51;;;;;;;36.95;7.85;;;;;;;5.56;98.55;99316.31;5049253;28;20047;-85
2021/12/28 02:48:16;;;;;;;31.40;7.50;;;;;;;5.59;98.50;99305.91;5050422;28;20055;-85
2021/12/28 02:50:48;;;;;;;33.78;7.40;;;;;;;5.60;98.47;99310.16;5049434;28;20479;-85
2021/12/28 02:53:15;;;;;;;34.53;7.55;;;;;;;5.61;98.30;99309.28;5048196;28;20035;-85
2021/12/28 02:55:41;;;;;;;34.10;7.18;;;;;;;5.61;98.12;99311.88;5048486;28;20044;-85
2021/12/28 02:58:09;;;;;;;34.67;7.00;;;;;;;5.63;98.27;99306.66;5050142;28;20075;-85
2021/12/28 03:00:43;;;;;;;35.88;6.75;;;;;;;5.62;98.47;99299.78;5051304;28;20029;-85
2021/12/28 03:03:15;;;;;;;37.58;6.82;;;;;;;5.60;98.46;99299.00;5049873;28;20032;-85
2021/12/28 03:05:43;;;;;;;31.50;6.50;;;;;;;5.61;98.28;99296.38;5052597;28;20090;-85
2021/12/28 03:08:09;;;;;;;35.17;6.78;;;;;;;5.61;98.09;99300.69;5051418;28;20130;-85
2021/12/28 03:10:36;;;;;;;31.98;7.18;;;;;;;5.61;98.38;99291.22;5051548;28;20039;-85
2021/12/28 03:13:03;;;;;;;37.28;6.75;;;;;;;5.60;98.00;99294.69;5049816;28;20032;-85
2021/12/28 03:15:29;;;;;;;29.60;6.22;;;;;;;5.60;98.02;99297.28;5050403;28;20476;-85
2021/12/28 03:17:54;;;;;;;31.73;6.60;;;;;;;5.60;98.10;99291.25;5055896;28;20025;-86
2021/12/28 03:20:19;;;;;;;37.80;6.53;;;;;;;5.61;98.19;99288.66;5054292;28;20032;-85
2021/12/28 03:22:45;;;;;;;29.15;6.28;;;;;;;5.61;98.20;99283.47;5054587;28;20065;-85
2021/12/28 03:25:11;;;;;;;28.50;6.22;;;;;;;5.61;97.71;99287.78;5054839;28;20040;-85
2021/12/28 03:27:37;;;;;;;31.33;5.85;;;;;;;5.59;97.72;99282.69;5055469;28;20040;-85
2021/12/28 03:30:06;;;;;;;25.38;5.72;;;;;;;5.59;97.78;99280.09;5055046;28;20121;-86
2021/12/28 03:32:31;;;;;;;34.35;6.35;;;;;;;5.58;98.06;99273.25;5055650;28;20025;-85
2021/12/28 03:34:57;;;;;;;28.02;5.93;;;;;;;5.61;97.91;99268.00;5055955;28;20122;-85
2021/12/28 03:37:22;;;;;;;29.35;5.75;;;;;;;5.58;97.75;99265.50;5054899;28;20487;-85
2021/12/28 03:39:48;;;;;;;30.95;6.18;;;;;;;5.59;97.78;99264.63;5054475;28;20071;-85
2021/12/28 03:42:13;;;;;;;30.15;6.57;;;;;;;5.58;98.03;99255.19;5054830;28;20384;-85
2021/12/28 03:44:38;;;;;;;34.42;6.28;;;;;;;5.56;97.83;99259.56;5054221;28;20041;-85
2021/12/28 03:47:04;;;;;;;31.40;5.80;;;;;;;5.53;97.66;99254.47;5055081;28;20090;-86
2021/12/28 03:49:29;;;;;;;29.60;6.07;;;;;;;5.49;97.91;99246.91;5056152;28;20020;-85
2021/12/28 03:51:55;;;;;;;28.20;5.55;;;;;;;5.48;97.62;99240.88;5052785;28;20472;-85
2021/12/28 03:54:20;;;;;;;28.35;5.90;;;;;;;5.49;97.60;99241.72;5053769;28;20139;-85
2021/12/28 03:56:46;;;;;;;37.10;6.15;;;;;;;5.50;97.99;99238.25;5053386;28;20471;-85
2021/12/28 03:59:11;;;;;;;27.08;5.35;;;;;;;5.52;98.06;99233.91;5051378;28;20020;-85
2021/12/28 04:01:36;;;;;;;34.17;5.72;;;;;;;5.59;97.84;99228.50;5052026;28;20539;-85
2021/12/28 04:04:02;;;;;;;32.85;5.82;;;;;;;5.62;98.49;99228.41;5052122;28;20037;-85
2021/12/28 04:06:30;;;;;;;35.17;5.95;;;;;;;5.66;98.46;99223.13;5056123;28;20037;-85
2021/12/28 04:08:57;;;;;;;30.50;5.68;;;;;;;5.70;98.56;99225.59;5035131;28;20048;-85
2021/12/28 04:11:25;;;;;;;29.13;6.25;;;;;;;5.73;98.95;99229.81;5054320;28;20040;-85
2021/12/28 04:13:53;;;;;;;29.65;5.80;;;;;;;5.77;98.74;99227.06;5053130;28;20032;-85
2021/12/28 04:16:19;;;;;;;31.77;6.43;;;;;;;5.80;99.13;99227.88;5054060;28;20032;-86
2021/12/28 04:18:45;;;;;;;36.47;6.03;;;;;;;5.84;98.97;99227.72;5053600;28;20033;-85
2021/12/28 04:21:11;;;;;;;27.90;5.55;;;;;;;5.87;99.16;99226.78;5053349;28;20033;-86
2021/12/28 04:23:37;;;;;;;34.67;5.40;;;;;;;5.89;98.95;99228.41;5052574;28;20049;-85
2021/12/28 04:26:04;;;;;;;36.92;5.90;;;;;;;5.93;99.35;99227.44;5053976;28;20055;-85
2021/12/28 04:28:29;;;;;;;39.53;5.40;;;;;;;5.98;99.08;99223.84;5054096;28;20112;-86
2021/12/28 04:30:55;;;;;;;40.25;5.75;;;;;;;5.99;99.35;99220.34;5053439;28;20515;-85
2021/12/28 04:33:20;;;;;;;34.58;6.38;;;;;;;6.03;99.04;99224.56;5057572;28;20041;-85
2021/12/28 04:35:46;;;;;;;33.72;6.05;;;;;;;6.06;99.46;99222.72;5054667;28;20056;-85
2021/12/28 04:38:11;;;;;;;29.92;5.60;;;;;;;6.09;99.34;99216.63;5053755;28;20060;-85
2021/12/28 04:40:36;;;;;;;31.52;5.38;;;;;;;6.11;99.42;99224.31;5053696;28;20064;-85
2021/12/28 04:43:02;;;;;;;36.72;5.63;;;;;;;6.11;99.19;99217.41;5053183;28;20104;-85
2021/12/28 04:45:27;;;;;;;29.20;5.18;;;;;;;6.12;99.09;99211.34;5054050;28;20029;-85
2021/12/28 04:47:53;;;;;;;24.23;5.03;;;;;;;6.15;99.14;99226.72;5053567;28;20116;-85
2021/12/28 04:50:18;;;;;;;26.10;4.78;;;;;;;6.18;99.24;99226.63;5056759;28;20032;-85
2021/12/28 04:52:44;;;;;;;30.80;5.28;;;;;;;6.26;99.30;99228.13;5052627;28;20029;-85
2021/12/28 04:55:14;;;;;;;31.05;5.00;;;;;;;6.30;99.38;99232.28;5054105;28;20059;-85
2021/12/28 04:57:41;;;;;;;31.38;4.82;;;;;;;6.35;99.38;99227.78;5054456;28;20396;-85
2021/12/28 05:00:11;;;;;;;28.20;5.28;;;;;;;6.34;99.66;99220.94;5054244;28;20021;-85
2021/12/28 05:02:37;;;;;;;29.73;4.82;;;;;;;6.39;99.41;99234.53;5055753;28;20029;-85
2021/12/28 05:05:03;;;;;;;23.25;4.10;;;;;;;6.43;99.56;99225.81;5054012;28;20048;-85
2021/12/28 05:07:29;;;;;;;29.27;4.78;;;;;;;6.46;99.49;99224.84;5036113;28;20044;-85
2021/12/28 05:09:57;;;;;;;26.65;4.60;;;;;;;6.46;99.54;99225.69;5051900;28;20463;-85
2021/12/28 05:12:26;;;;;;;27.50;4.13;;;;;;;6.48;99.55;99223.91;5035243;28;20037;-85
2021/12/28 05:14:52;;;;;;;27.90;4.88;;;;;;;6.50;99.28;99222.09;5052965;28;21758;-85
2021/12/28 05:17:17;;;;;;;27.60;4.80;;;;;;;6.51;99.25;99213.44;5053166;28;20103;-85
2021/12/28 05:19:43;;;;;;;25.10;4.57;;;;;;;6.51;98.71;99216.03;5055362;28;20024;-85
2021/12/28 05:22:09;;;;;;;28.20;4.72;;;;;;;6.53;98.81;99213.41;5052824;28;20032;-85
2021/12/28 05:24:35;;;;;;;27.05;4.60;;;;;;;6.53;99.00;99205.66;5052929;28;20076;-85
2021/12/28 05:27:01;;;;;;;29.05;4.50;;;;;;;6.56;99.00;99205.56;5054013;28;20111;-85
2021/12/28 05:29:26;;;;;;;28.50;5.10;;;;;;;6.57;98.83;99203.78;5053099;28;20546;-85
2021/12/28 05:31:52;;;;;;;25.08;4.20;;;;;;;6.57;98.91;99202.06;5054310;28;20021;-85
2021/12/28 05:34:17;;;;;;;24.42;4.15;;;;;;;6.60;98.87;99201.09;5053088;28;20400;-85
2021/12/28 05:36:42;;;;;;;26.42;4.45;;;;;;;6.61;99.08;99198.47;5056339;28;20112;-85
2021/12/28 05:39:08;;;;;;;21.83;4.28;;;;;;;6.63;98.66;99201.84;5052235;28;20024;-85
2021/12/28 05:41:33;;;;;;;22.02;3.92;;;;;;;6.63;98.81;99191.50;5054745;28;20043;-85
2021/12/28 05:43:58;;;;;;;23.75;4.22;;;;;;;6.64;98.62;99188.03;5052080;28;20521;-85
2021/12/28 05:46:24;;;;;;;21.77;3.83;;;;;;;6.66;98.58;99185.41;5053313;28;20103;-85
2021/12/28 05:48:49;;;;;;;22.67;4.28;;;;;;;6.67;98.69;99192.22;5052678;28;20061;-85
2021/12/28 05:51:15;;;;;;;23.80;4.40;;;;;;;6.66;98.70;99177.66;5052993;28;20032;-85
2021/12/28 05:53:41;;;;;;;22.10;3.83;;;;;;;6.67;98.89;99179.28;5057643;28;20033;-85
2021/12/28 05:56:07;;;;;;;24.40;4.05;;;;;;;6.68;98.71;99173.22;5054728;28;20029;-85
2021/12/28 05:58:32;;;;;;;23.85;4.13;;;;;;;6.69;98.42;99182.66;5052458;28;20429;-85
2021/12/28 06:00:58;;;;;;;24.77;4.35;;;;;;;6.70;98.71;99171.44;5052929;28;20021;-85
2021/12/28 06:03:23;;;;;;;20.63;4.35;;;;;;;6.72;98.54;99176.56;5052026;28;20132;-85
2021/12/28 06:05:49;;;;;;;18.90;3.75;;;;;;;6.75;98.45;99173.84;5052357;28;20036;-85
2021/12/28 06:08:14;;;;;;;20.55;4.30;;;;;;;6.74;98.65;99178.19;5052600;28;20104;-85
2021/12/28 06:10:40;;;;;;;23.33;4.25;;;;;;;6.77;98.64;99178.09;5053167;28;20475;-86
2021/12/28 06:13:06;;;;;;;18.67;4.00;;;;;;;6.78;98.34;99172.00;5052539;28;20016;-85
2021/12/28 06:15:31;;;;;;;18.60;3.97;;;;;;;6.77;98.38;99165.16;5051804;28;20404;-85
2021/12/28 06:17:56;;;;;;;22.00;4.65;;;;;;;6.80;98.52;99175.38;5052143;28;20043;-85
2021/12/28 06:20:22;;;;;;;23.90;4.18;;;;;;;6.81;98.24;99173.63;5050720;28;20028;-85
2021/12/28 06:22:47;;;;;;;21.95;3.85;;;;;;;6.80;98.43;99167.63;5050021;28;20495;-85
2021/12/28 06:25:12;;;;;;;18.95;3.97;;;;;;;6.82;98.39;99165.84;5051769;28;20086;-85
2021/12/28 06:27:37;;;;;;;19.25;4.07;;;;;;;6.86;98.26;99161.38;5054371;28;20090;-85
2021/12/28 06:30:03;;;;;;;14.43;3.85;;;;;;;6.86;98.13;99158.81;5051443;28;20094;-85
2021/12/28 06:32:29;;;;;;;19.80;4.10;;;;;;;6.92;98.43;99150.78;5053087;28;20043;-85
2021/12/28 06:34:54;;;;;;;21.30;4.10;;;;;;;6.94;98.27;99161.94;5054587;28;20106;-86
2021/12/28 06:37:19;;;;;;;16.80;3.80;;;;;;;6.96;98.22;99147.19;5053166;28;20055;-85
2021/12/28 06:39:45;;;;;;;16.27;3.75;;;;;;;6.98;98.39;99152.34;5052608;28;20111;-85
2021/12/28 06:42:10;;;;;;;17.40;3.92;;;;;;;7.00;98.35;99147.94;5052750;28;20467;-85
2021/12/28 06:44:35;;;;;;;15.25;3.58;;;;;;;7.00;98.32;99137.59;5052055;28;20067;-86
2021/12/28 06:47:01;;;;;;;16.48;3.97;;;;;;;7.00;98.37;99145.34;5051268;28;20116;-85
2021/12/28 06:49:26;;;;;;;17.20;3.92;;;;;;;7.01;98.41;99136.69;5052987;28;20112;-85
2021/12/28 06:51:51;;;;;;;13.70;3.45;;;;;;;7.01;98.07;99134.09;5051469;28;20135;-85
2021/12/28 06:54:16;;;;;;;14.50;3.70;;;;;;;6.97;98.09;99125.63;5051869;28;20020;-85
2021/12/28 06:56:42;;;;;;;13.52;3.47;;;;;;;6.97;97.89;99127.38;5051769;28;20063;-85
2021/12/28 06:59:08;;;;;;;16.80;3.60;;;;;;;6.96;98.32;99129.09;5033407;28;20079;-85
2021/12/28 07:01:33;;;;;;;17.80;3.70;;;;;;;6.96;98.23;99128.28;5051520;28;20031;-86
2021/12/28 07:03:58;;;;;;;15.35;3.78;;;;;;;6.96;97.96;99143.78;5054604;28;20033;-86
2021/12/28 07:06:26;;;;;;;12.70;3.45;;;;;;;7.00;98.12;99145.34;5052088;28;20029;-86
2021/12/28 07:08:52;;;;;;;14.32;3.63;;;;;;;7.01;98.25;99131.50;5034320;28;20037;-85
2021/12/28 07:11:17;;;;;;;12.18;3.28;;;;;;;7.01;97.64;99126.34;5052797;28;20033;-86
2021/12/28 07:13:43;;;;;;;15.43;3.60;;;;;;;7.01;97.99;99128.09;5052755;28;20040;-85
2021/12/28 07:16:08;;;;;;;15.10;3.67;;;;;;;7.01;97.86;99126.34;5050590;28;20033;-85
2021/12/28 07:18:33;;;;;;;15.32;3.28;;;;;;;7.03;97.86;99126.28;5051196;28;20020;-85
2021/12/28 07:21:00;;;;;;;15.95;3.28;;;;;;;7.03;97.69;99121.94;5051376;28;20495;-85
2021/12/28 07:23:26;;;;;;;15.32;3.40;;;;;;;7.04;97.51;99118.47;5051835;28;20044;-85
2021/12/28 07:25:53;;;;;;;10.80;3.13;;;;;;;7.05;97.63;99121.91;5052022;28;20036;-85
2021/12/28 07:28:19;;;;;;;9.45;3.22;;;;;;;7.07;97.66;99133.88;5055289;28;20475;-85
2021/12/28 07:30:44;;;;;;;9.82;3.17;;;;;;;7.07;97.31;99128.69;5034711;28;20033;-85
2021/12/28 07:33:09;;;;;;;13.23;3.28;;;;;;;7.09;97.34;99129.47;5053204;28;20021;-85
2021/12/28 07:35:34;;;;;;;11.52;3.47;;;;;;;7.10;97.55;99126.00;5051250;28;20476;-85
2021/12/28 07:38:00;;;;;;;12.68;3.05;;;;;;;7.11;97.21;99125.09;5031960;28;20025;-86
2021/12/28 07:40:25;;;;;;;11.27;2.80;;;;;;;7.16;97.11;99129.25;5050029;28;20028;-86
2021/12/28 07:42:50;;;;;;;13.98;3.03;;;;;;;7.16;96.73;99127.50;5052420;28;20402;-85
2021/12/28 07:45:17;;;;;;;7.72;2.67;;;;;;;7.19;96.65;99123.94;5051215;28;20025;-85
2021/12/28 07:47:43;;;;;;;8.15;2.63;;;;;;;7.20;96.34;99110.09;5051214;28;20020;-85
2021/12/28 07:50:11;;;;;;;8.52;2.60;;;;;;;7.26;96.32;99112.44;5053681;28;20028;-85
2021/12/28 07:52:36;;;;;;;12.35;2.70;;;;;;;7.25;96.25;99105.59;5055805;28;20130;-85
2021/12/28 07:55:05;;;;;;;15.40;3.30;;;;;;;7.28;96.18;99118.41;5050924;28;20220;-85
2021/12/28 07:57:31;;;;;;;11.73;2.80;;;;;;;7.32;96.09;99117.38;5051005;28;20514;-85
2021/12/28 07:59:56;;;;;;;11.05;2.80;;;;;;;7.33;96.39;99119.06;5050355;28;20009;-85
2021/12/28 08:02:22;;;;;;;11.07;2.72;;;;;;;7.36;96.43;99118.09;5052221;28;20495;-85
2021/12/28 08:04:47;;;;;;;9.52;2.75;;;;;;;7.43;96.22;99122.97;5054685;28;20032;-85
2021/12/28 08:07:13;;;;;;;13.70;3.20;;;;;;;7.39;96.24;99121.38;5054701;28;20028;-85
2021/12/28 08:09:38;;;;;;;11.35;3.03;;;;;;;7.39;96.32;99120.56;5053902;28;20492;-85
2021/12/28 08:12:04;;;;;;;9.57;2.80;;;;;;;7.39;96.22;99118.81;5056068;28;20032;-85
2021/12/28 08:14:29;;;;;;;9.20;2.50;;;;;;;7.40;96.40;99117.06;5056671;28;20027;-85
2021/12/28 08:16:54;;;;;;;10.10;2.80;;;;;;;7.41;96.55;99118.75;5055593;28;20037;-85
2021/12/28 08:19:20;;;;;;;10.52;3.15;;;;;;;7.40;96.55;99114.50;5055155;28;20364;-85
2021/12/28 08:21:46;;;;;;;10.98;3.20;;;;;;;7.39;96.76;99113.63;5055214;28;20056;-85
2021/12/28 08:24:11;;;;;;;8.80;2.60;;;;;;;7.42;96.82;99112.69;5055190;28;20496;-85
2021/12/28 08:26:36;;;;;;;10.13;3.20;;;;;;;7.40;96.97;99115.31;5053391;28;20071;-85
2021/12/28 08:29:02;;;;;;;10.38;2.83;;;;;;;7.40;97.05;99117.91;5051503;28;20033;-85
2021/12/28 08:31:28;;;;;;;9.52;2.88;;;;;;;7.41;97.50;99116.19;5055931;28;20086;-85
2021/12/28 08:33:54;;;;;;;13.85;3.65;;;;;;;7.41;97.47;99114.41;5054160;28;20536;-85
2021/12/28 08:36:19;;;;;;;11.00;3.35;;;;;;;7.43;97.60;99110.03;5053788;28;20028;-85
2021/12/28 08:38:44;;;;;;;9.50;3.40;;;;;;;7.40;97.57;99097.22;5054403;28;20708;-85
2021/12/28 08:41:10;;;;;;;10.20;3.60;;;;;;;7.41;97.65;99096.31;5053206;28;20041;-85
2021/12/28 08:43:36;;;;;;;10.95;3.55;;;;;;;7.43;97.75;99096.22;5054969;28;20023;-85
2021/12/28 08:46:02;;;;;;;7.88;3.70;;;;;;;7.43;97.90;99089.31;5055121;28;20110;-86
2021/12/28 08:48:28;;;;;;;8.67;3.73;;;;;;;7.43;98.12;99097.09;5054445;28;20080;-85
2021/12/28 08:50:53;;;;;;;9.77;3.78;;;;;;;7.44;98.29;99096.19;5034677;28;20032;-85
2021/12/28 08:53:19;;;;;;;9.32;4.38;;;;;;;7.47;98.05;99094.38;5051750;28;20399;-85
2021/12/28 08:55:44;;;;;;;8.38;3.88;;;;;;;7.48;98.34;99093.47;5053046;28;20040;-85
2021/12/28 08:58:10;;;;;;;9.65;4.25;;;;;;;7.49;98.58;99097.75;5055687;28;20024;-85
2021/12/28 09:00:36;;;;;;;8.38;4.15;;;;;;;7.51;98.40;99096.78;5055260;28;20024;-85
2021/12/28 09:03:03;;;;;;;9.07;4.00;;;;;;;7.55;98.50;99097.47;5053725;28;20513;-85
2021/12/28 09:05:29;;;;;;;7.50;4.40;;;;;;;7.56;98.10;99091.41;5054111;28;20441;-85
2021/12/28 09:07:56;;;;;;;8.38;4.50;;;;;;;7.58;98.89;99092.19;5053848;28;20348;-86
2021/12/28 09:10:25;;;;;;;10.23;4.72;;;;;;;7.60;98.65;99087.78;5054219;28;20039;-85
2021/12/28 09:12:50;;;;;;;7.85;4.45;;;;;;;7.63;98.59;99084.22;5036911;28;20159;-85
2021/12/28 09:15:16;;;;;;;10.15;4.40;;;;;;;7.66;98.71;99078.91;5053005;28;20116;-85
2021/12/28 09:17:41;;;;;;;8.75;4.20;;;;;;;7.68;98.67;99083.16;5069250;28;20471;-85
2021/12/28 09:20:11;;;;;;;7.30;4.03;;;;;;;7.70;98.69;99081.31;5054652;28;20033;-85
2021/12/28 09:22:37;;;;;;;8.98;4.43;;;;;;;7.73;98.80;99080.34;5059599;28;20029;-85
2021/12/28 09:25:03;;;;;;;7.50;4.45;;;;;;;7.78;98.73;99077.56;5068907;28;20391;-85
2021/12/28 09:27:28;;;;;;;7.28;4.53;;;;;;;7.79;98.73;99079.25;5051834;28;20472;-85
2021/12/28 09:29:53;;;;;;;9.48;5.85;;;;;;;7.82;98.80;99074.75;5054434;28;20468;-85
2021/12/28 09:32:20;;;;;;;10.95;6.13;;;;;;;7.86;98.70;99071.16;5052445;28;20055;-86
2021/12/28 09:34:48;;;;;;;9.30;6.30;;;;;;;7.89;98.64;99067.56;5036823;28;20128;-85
2021/12/28 09:37:13;;;;;;;9.43;5.72;;;;;;;7.94;98.85;99072.56;5055667;28;20029;-85
2021/12/28 09:39:39;;;;;;;11.43;5.40;;;;;;;7.97;98.73;99083.63;5053543;28;20036;-85
2021/12/28 09:42:04;;;;;;;9.00;5.25;;;;;;;7.98;98.73;99059.41;5054028;28;20029;-84
2021/12/28 09:44:33;;;;;;;6.85;5.57;;;;;;;8.02;98.60;99060.13;5047503;28;20016;-85
2021/12/28 09:47:01;;;;;;;6.88;4.95;;;;;;;8.04;98.64;99058.31;5055680;28;20064;-85
2021/12/28 09:49:28;;;;;;;6.93;4.35;;;;;;;8.07;98.63;99054.72;5053855;28;20033;-84
2021/12/28 09:51:54;;;;;;;6.32;4.15;;;;;;;8.10;98.76;99052.00;5052873;28;20096;-84
2021/12/28 09:54:23;;;;;;;6.32;3.97;;;;;;;8.12;98.77;99050.19;5050135;28;20052;-85
2021/12/28 09:56:49;;;;;;;6.30;3.90;;;;;;;8.13;98.88;99041.53;5052458;28;20507;-85
2021/12/28 09:59:14;;;;;;;5.18;3.80;;;;;;;8.15;98.90;99045.72;5052675;28;20025;-85
2021/12/28 10:01:39;;;;;;;5.10;3.83;;;;;;;8.18;98.61;99044.75;5052204;28;20104;-85
2021/12/28 10:04:04;;;;;;;4.95;3.90;;;;;;;8.17;98.51;99040.47;5051876;28;20036;-85
2021/12/28 10:06:30;;;;;;;5.72;4.07;;;;;;;8.20;98.53;99042.91;5053839;28;20020;-85
2021/12/28 10:09:14;;;;;;;5.40;4.03;;;;;;;8.26;98.37;99032.28;5053277;28;20050;-85
2021/12/28 10:11:48;;;;;;;6.47;3.97;;;;;;;8.27;98.38;99033.97;5051970;28;20051;-85
2021/12/28 10:14:18;;;;;;;4.93;3.50;;;;;;;8.31;98.12;99025.16;5052134;28;20408;-84
2021/12/28 10:16:48;;;;;;;4.55;3.70;;;;;;;8.37;98.17;99018.00;5052200;28;20040;-85
2021/12/28 10:19:40;;;;;;;5.78;3.80;;;;;;;8.38;98.20;99009.28;5053307;28;20403;-85
2021/12/28 10:22:19;;;;;;;;;;;;;;;8.45;97.95;99010.69;5053251;28;20043;-84
2021/12/28 10:24:45;;;;;;;5.68;3.72;;;;;;;8.46;97.20;99014.97;5051526;28;19987;-85
2021/12/28 10:27:12;;;;;;;6.28;3.83;;;;;;;8.43;97.62;99004.75;5051380;28;20112;-85
2021/12/28 10:29:38;;;;;;;7.20;3.95;;;;;;;8.43;97.64;99003.00;5051243;28;20095;-85
2021/12/28 10:32:17;;;;;;;5.25;3.60;;;;;;;8.43;97.83;99000.44;5053076;28;20083;-85
2021/12/28 10:34:47;;;;;;;4.40;3.85;;;;;;;8.45;97.87;98987.38;5051880;28;20028;-85
2021/12/28 10:37:24;;;;;;;7.23;3.63;;;;;;;8.48;97.74;98987.28;5051542;28;20076;-85
2021/12/28 10:39:54;;;;;;;4.63;3.65;;;;;;;8.49;97.54;98981.19;5051344;28;20027;-84
2021/12/28 10:42:48;;;;;;;5.63;3.53;;;;;;;8.51;97.55;98971.59;5051582;28;20024;-85
2021/12/28 10:45:21;;;;;;;5.05;3.60;;;;;;;8.55;96.99;98969.69;5051111;28;20029;-85
2021/12/28 10:47:48;;;;;;;4.85;3.60;;;;;;;8.59;96.53;98961.69;5049303;28;20024;-85
2021/12/28 10:50:35;;;;;;;4.68;3.60;;;;;;;8.64;96.52;98964.91;5051412;28;20537;-85
2021/12/28 10:53:25;;;;;;;4.53;3.30;;;;;;;8.67;96.25;98957.88;5033120;28;20025;-85
2021/12/28 10:55:55;;;;;;;4.28;3.30;;;;;;;8.71;95.95;98946.47;5041548;28;20033;-84
2021/12/28 10:58:42;;;;;;;4.97;3.22;;;;;;;8.70;95.80;98962.94;5052164;28;20060;-85
2021/12/28 11:01:14;;;;;;;4.60;3.20;;;;;;;8.71;95.88;98954.25;5050927;28;20025;-84
2021/12/28 11:03:45;;;;;;;4.05;3.00;;;;;;;8.71;95.68;98952.47;5052449;28;20083;-85
2021/12/28 11:06:21;;;;;;;3.53;2.80;;;;;;;8.73;95.41;98948.06;5050681;28;20484;-85
2021/12/28 11:08:49;;;;;;;5.60;3.00;;;;;;;8.73;95.42;98942.88;5052721;28;20044;-85
2021/12/28 11:11:17;;;;;;;5.10;2.90;;;;;;;8.72;95.73;98940.34;5051909;28;20032;-85
2021/12/28 11:13:42;;;;;;;5.13;2.92;;;;;;;8.73;96.04;98936.84;5056252;28;20497;-85
2021/12/28 11:16:11;;;;;;;4.13;3.03;;;;;;;8.70;96.12;98926.63;5053211;28;20056;-85
2021/12/28 11:18:43;;;;;;;4.57;2.80;;;;;;;8.71;96.18;98923.13;5050204;28;20106;-84
2021/12/28 11:21:20;;;;;;;4.13;2.80;;;;;;;8.71;96.34;98917.94;5051912;28;20162;-84
2021/12/28 11:23:51;;;;;;;3.90;3.00;;;;;;;8.69;96.53;98919.78;5050812;28;20400;-85
2021/12/28 11:26:25;;;;;;;4.38;3.53;;;;;;;8.68;96.59;98912.91;5052446;28;20044;-85
2021/12/28 11:29:04;;;;;;;5.60;3.50;;;;;;;8.67;96.82;98901.69;5048428;28;20134;-85
2021/12/28 11:31:34;;;;;;;3.53;3.17;;;;;;;8.68;96.99;98905.97;5049861;28;20124;-85
2021/12/28 11:34:11;;;;;;;4.85;3.00;;;;;;;8.68;96.96;98897.34;5048009;28;20067;-84
2021/12/28 11:36:40;;;;;;;2.78;2.45;;;;;;;8.69;96.97;98899.03;5048423;28;20040;-84